Offutt Air Force Base
KOFF : rendu visible

Aérodrome :











RETROUVEZ-NOUS SUR...

 
LOGIN :

S'inscrire | Disclaimer

   EN    FR    IT 

 









Légende :    VFR   VFR Marginal   IFR   IFR Intensif   IFR Très Intensif
Visi : 
Plafond : 
>= 8 km
>= 3000ft
5 à 8 km
1000 à 3000 ft
1500m à 5 km
500 à 1000 ft
800 à 1500m
200 à 500 ft
< 800m
< 200 ft
Symboles :   Orages  Brouillard  Fortes neiges  Fortes précipitations  Vent > 20 kt






- Altitude de l'aérodrome : 1052 ft


KOFF - Offutt Air Force Base

DERNIER METAR :
  • 191256Z 23003KT 10SM CLR 02/00 A2988 RMK AO2A SLP123 RVRNO $

METARs EXPIRÉS :
  • 191156Z 31003KT 10SM CLR 03/01 A2986 RMK AO2A SLP117 RVRNO $
  • 191056Z 29005KT 10SM CLR 03/02 A2984 RMK AO2A SLP108 RVRNO $

TAF TAF KOFF
Valide du 19 à 10h jusqu'au 20 à 16h UTC


191000Z 1910/2016 30005KT 9999 SKC QNH2982INS
BECMG 2007/2008 13009KT 9999 FEW250 WS020/17030KT QNH2980INS TX13/1922Z TN03/1912Z



MET'MAP, la Météo Aéronautique d'un coup d'oeil ! - Copyright ORBIFLY Décembre 2007 - Disclaimer

ORBIFLY MET'MAP TEAM :

Programmation & Développement : Alexandra Zaïnal
Conception & Développement : Baudouin d'Aumeries
Co-Programmation & Développement : Marc-Olivier Méhu
Soutien technique & logistique : Manuel Goepfert

Contact : metmap@orbifly.com




SOURCES & CREDITS :

   NOAA       Earth
Advisory